sensor_id;sensor_type;location;lat;lon;timestamp;P1;durP1;ratioP1;P2;durP2;ratioP2
56893;SDS011;43392;50.078;13.704;2023-12-20T11:13:28;3.85;;;2.05;;
56893;SDS011;43392;50.078;13.704;2023-12-20T11:16:00;5.05;;;2.30;;
56893;SDS011;43392;50.078;13.704;2023-12-20T11:18:28;7.43;;;3.50;;
56893;SDS011;43392;50.078;13.704;2023-12-20T11:20:55;3.40;;;1.80;;
56893;SDS011;43392;50.078;13.704;2023-12-20T11:23:26;4.38;;;2.20;;
56893;SDS011;43392;50.078;13.704;2023-12-20T11:25:54;3.80;;;1.88;;
56893;SDS011;43392;50.078;13.704;2023-12-20T11:28:23;4.20;;;2.17;;
56893;SDS011;43392;50.078;13.704;2023-12-20T11:30:53;4.05;;;2.33;;
56893;SDS011;43392;50.078;13.704;2023-12-20T11:33:21;5.03;;;2.10;;
56893;SDS011;43392;50.078;13.704;2023-12-20T11:35:49;3.22;;;1.98;;
56893;SDS011;43392;50.078;13.704;2023-12-20T11:38:16;4.78;;;2.13;;
56893;SDS011;43392;50.078;13.704;2023-12-20T11:40:43;6.68;;;2.67;;
56893;SDS011;43392;50.078;13.704;2023-12-20T11:43:10;6.20;;;2.10;;
56893;SDS011;43392;50.078;13.704;2023-12-20T11:45:36;4.85;;;2.40;;
56893;SDS011;43392;50.078;13.704;2023-12-20T11:48:05;5.43;;;2.10;;
56893;SDS011;43392;50.078;13.704;2023-12-20T11:50:33;3.80;;;1.85;;
56893;SDS011;43392;50.078;13.704;2023-12-20T11:52:59;3.15;;;1.80;;
56893;SDS011;43392;50.078;13.704;2023-12-20T11:55:29;3.72;;;1.52;;
56893;SDS011;43392;50.078;13.704;2023-12-20T11:57:56;3.45;;;1.48;;
56893;SDS011;43392;50.078;13.704;2023-12-20T12:00:23;4.15;;;1.67;;
56893;SDS011;43392;50.078;13.704;2023-12-20T12:02:57;3.13;;;1.60;;
56893;SDS011;43392;50.078;13.704;2023-12-20T12:05:26;3.63;;;1.67;;
56893;SDS011;43392;50.078;13.704;2023-12-20T12:07:52;2.50;;;1.27;;
56893;SDS011;43392;50.078;13.704;2023-12-20T12:10:19;5.57;;;1.50;;
56893;SDS011;43392;50.078;13.704;2023-12-20T12:12:46;3.30;;;1.38;;
56893;SDS011;43392;50.078;13.704;2023-12-20T12:15:13;2.08;;;1.27;;
56893;SDS011;43392;50.078;13.704;2023-12-20T12:17:40;3.70;;;1.70;;
56893;SDS011;43392;50.078;13.704;2023-12-20T12:20:07;3.50;;;1.42;;
56893;SDS011;43392;50.078;13.704;2023-12-20T12:22:36;3.45;;;1.20;;
56893;SDS011;43392;50.078;13.704;2023-12-20T12:25:09;2.13;;;1.35;;
56893;SDS011;43392;50.078;13.704;2023-12-20T12:27:36;4.13;;;1.40;;
56893;SDS011;43392;50.078;13.704;2023-12-20T12:30:04;8.55;;;1.75;;
56893;SDS011;43392;50.078;13.704;2023-12-20T12:32:33;2.63;;;1.40;;
56893;SDS011;43392;50.078;13.704;2023-12-20T12:35:00;3.80;;;1.40;;
56893;SDS011;43392;50.078;13.704;2023-12-20T12:37:26;8.60;;;4.57;;
56893;SDS011;43392;50.078;13.704;2023-12-20T12:39:54;3.53;;;1.50;;
56893;SDS011;43392;50.078;13.704;2023-12-20T12:42:21;2.90;;;1.33;;
56893;SDS011;43392;50.078;13.704;2023-12-20T12:44:50;3.92;;;1.80;;
56893;SDS011;43392;50.078;13.704;2023-12-20T12:47:17;6.10;;;1.50;;
56893;SDS011;43392;50.078;13.704;2023-12-20T12:49:44;3.03;;;1.50;;
56893;SDS011;43392;50.078;13.704;2023-12-20T12:52:10;3.70;;;1.60;;
56893;SDS011;43392;50.078;13.704;2023-12-20T12:54:37;4.03;;;1.50;;
56893;SDS011;43392;50.078;13.704;2023-12-20T12:57:05;5.20;;;1.80;;
56893;SDS011;43392;50.078;13.704;2023-12-20T12:59:32;42.30;;;16.90;;
56893;SDS011;43392;50.078;13.704;2023-12-20T13:01:58;10.32;;;4.07;;
56893;SDS011;43392;50.078;13.704;2023-12-20T13:04:25;6.22;;;2.58;;
56893;SDS011;43392;50.078;13.704;2023-12-20T13:06:52;8.00;;;3.10;;
56893;SDS011;43392;50.078;13.704;2023-12-20T13:09:18;6.30;;;3.08;;
56893;SDS011;43392;50.078;13.704;2023-12-20T13:11:45;5.43;;;1.67;;
56893;SDS011;43392;50.078;13.704;2023-12-20T13:14:13;7.00;;;2.80;;
56893;SDS011;43392;50.078;13.704;2023-12-20T13:16:40;5.13;;;2.40;;
56893;SDS011;43392;50.078;13.704;2023-12-20T13:19:07;4.40;;;1.48;;
56893;SDS011;43392;50.078;13.704;2023-12-20T13:21:35;3.33;;;1.50;;
56893;SDS011;43392;50.078;13.704;2023-12-20T13:24:01;3.92;;;1.50;;
56893;SDS011;43392;50.078;13.704;2023-12-20T13:26:28;5.45;;;1.98;;
56893;SDS011;43392;50.078;13.704;2023-12-20T13:28:55;3.53;;;1.50;;
56893;SDS011;43392;50.078;13.704;2023-12-20T13:31:23;3.85;;;1.40;;
56893;SDS011;43392;50.078;13.704;2023-12-20T13:33:49;7.18;;;2.10;;
56893;SDS011;43392;50.078;13.704;2023-12-20T13:36:17;2.90;;;1.75;;
56893;SDS011;43392;50.078;13.704;2023-12-20T13:38:44;3.08;;;1.42;;
56893;SDS011;43392;50.078;13.704;2023-12-20T13:41:10;2.53;;;1.20;;
56893;SDS011;43392;50.078;13.704;2023-12-20T13:43:37;5.43;;;1.80;;
56893;SDS011;43392;50.078;13.704;2023-12-20T13:46:04;2.95;;;1.48;;
56893;SDS011;43392;50.078;13.704;2023-12-20T13:48:32;3.90;;;1.67;;
56893;SDS011;43392;50.078;13.704;2023-12-20T13:50:58;3.50;;;1.60;;
56893;SDS011;43392;50.078;13.704;2023-12-20T13:53:25;5.15;;;2.83;;
56893;SDS011;43392;50.078;13.704;2023-12-20T13:55:51;3.55;;;1.80;;
56893;SDS011;43392;50.078;13.704;2023-12-20T13:58:18;3.72;;;1.50;;
56893;SDS011;43392;50.078;13.704;2023-12-20T14:00:45;2.35;;;1.33;;
56893;SDS011;43392;50.078;13.704;2023-12-20T14:03:12;3.05;;;1.30;;
56893;SDS011;43392;50.078;13.704;2023-12-20T14:05:40;6.72;;;1.42;;
56893;SDS011;43392;50.078;13.704;2023-12-20T14:08:06;3.13;;;1.40;;
56893;SDS011;43392;50.078;13.704;2023-12-20T14:10:34;2.83;;;1.25;;
56893;SDS011;43392;50.078;13.704;2023-12-20T14:13:00;3.92;;;1.48;;
56893;SDS011;43392;50.078;13.704;2023-12-20T14:15:27;3.47;;;1.38;;
56893;SDS011;43392;50.078;13.704;2023-12-20T14:17:54;3.53;;;1.75;;
56893;SDS011;43392;50.078;13.704;2023-12-20T14:20:20;3.38;;;1.55;;
56893;SDS011;43392;50.078;13.704;2023-12-20T14:22:48;6.35;;;1.80;;
56893;SDS011;43392;50.078;13.704;2023-12-20T14:25:15;6.68;;;1.95;;
56893;SDS011;43392;50.078;13.704;2023-12-20T14:27:42;6.10;;;2.03;;
56893;SDS011;43392;50.078;13.704;2023-12-20T14:30:10;4.35;;;1.80;;
56893;SDS011;43392;50.078;13.704;2023-12-20T14:32:39;4.97;;;1.83;;
56893;SDS011;43392;50.078;13.704;2023-12-20T14:35:06;4.10;;;1.75;;
56893;SDS011;43392;50.078;13.704;2023-12-20T14:37:33;6.20;;;2.17;;
56893;SDS011;43392;50.078;13.704;2023-12-20T14:40:01;6.65;;;2.47;;
56893;SDS011;43392;50.078;13.704;2023-12-20T14:42:28;5.65;;;2.47;;
56893;SDS011;43392;50.078;13.704;2023-12-20T14:44:55;5.05;;;1.83;;
56893;SDS011;43392;50.078;13.704;2023-12-20T14:47:21;3.92;;;1.90;;
56893;SDS011;43392;50.078;13.704;2023-12-20T14:49:50;6.75;;;1.90;;
56893;SDS011;43392;50.078;13.704;2023-12-20T14:52:17;8.05;;;2.05;;
56893;SDS011;43392;50.078;13.704;2023-12-20T14:54:43;5.65;;;2.10;;
56893;SDS011;43392;50.078;13.704;2023-12-20T14:57:12;5.18;;;2.20;;
56893;SDS011;43392;50.078;13.704;2023-12-20T14:59:38;3.75;;;1.55;;
56893;SDS011;43392;50.078;13.704;2023-12-20T15:02:05;5.95;;;1.73;;
56893;SDS011;43392;50.078;13.704;2023-12-20T15:04:32;6.55;;;1.95;;
56893;SDS011;43392;50.078;13.704;2023-12-20T15:06:59;5.55;;;2.22;;
56893;SDS011;43392;50.078;13.704;2023-12-20T15:09:27;7.72;;;2.80;;
56893;SDS011;43392;50.078;13.704;2023-12-20T15:11:54;6.05;;;2.10;;
56893;SDS011;43392;50.078;13.704;2023-12-20T15:14:22;7.63;;;1.85;;
56893;SDS011;43392;50.078;13.704;2023-12-20T15:16:49;5.55;;;1.70;;
56893;SDS011;43392;50.078;13.704;2023-12-20T15:19:16;5.53;;;2.13;;
56893;SDS011;43392;50.078;13.704;2023-12-20T15:21:42;6.45;;;2.83;;
56893;SDS011;43392;50.078;13.704;2023-12-20T15:24:09;6.10;;;2.22;;
56893;SDS011;43392;50.078;13.704;2023-12-20T15:29:06;2.92;;;1.70;;
56893;SDS011;43392;50.078;13.704;2023-12-20T15:31:35;6.47;;;2.90;;
56893;SDS011;43392;50.078;13.704;2023-12-20T15:34:03;7.18;;;3.55;;
56893;SDS011;43392;50.078;13.704;2023-12-20T15:36:29;6.38;;;2.08;;
56893;SDS011;43392;50.078;13.704;2023-12-20T15:38:56;4.05;;;1.90;;
56893;SDS011;43392;50.078;13.704;2023-12-20T15:41:23;6.03;;;1.88;;
56893;SDS011;43392;50.078;13.704;2023-12-20T15:43:50;5.22;;;1.65;;
56893;SDS011;43392;50.078;13.704;2023-12-20T15:46:16;6.78;;;1.90;;
56893;SDS011;43392;50.078;13.704;2023-12-20T15:48:44;4.50;;;1.77;;
56893;SDS011;43392;50.078;13.704;2023-12-20T15:51:11;8.90;;;2.63;;
56893;SDS011;43392;50.078;13.704;2023-12-20T15:53:38;5.60;;;2.13;;
56893;SDS011;43392;50.078;13.704;2023-12-20T15:56:05;5.88;;;2.20;;
56893;SDS011;43392;50.078;13.704;2023-12-20T15:58:32;8.05;;;3.20;;
56893;SDS011;43392;50.078;13.704;2023-12-20T16:00:59;7.25;;;2.95;;
56893;SDS011;43392;50.078;13.704;2023-12-20T16:03:26;13.95;;;5.43;;
56893;SDS011;43392;50.078;13.704;2023-12-20T16:05:54;32.05;;;11.52;;
56893;SDS011;43392;50.078;13.704;2023-12-20T16:08:20;15.13;;;6.88;;
56893;SDS011;43392;50.078;13.704;2023-12-20T16:10:47;12.20;;;4.78;;
56893;SDS011;43392;50.078;13.704;2023-12-20T16:13:14;21.45;;;7.53;;
56893;SDS011;43392;50.078;13.704;2023-12-20T16:15:40;12.18;;;5.13;;
56893;SDS011;43392;50.078;13.704;2023-12-20T16:18:08;5.57;;;2.30;;
56893;SDS011;43392;50.078;13.704;2023-12-20T16:20:36;6.28;;;2.08;;
56893;SDS011;43392;50.078;13.704;2023-12-20T16:23:04;9.90;;;4.03;;
56893;SDS011;43392;50.078;13.704;2023-12-20T16:25:31;6.03;;;2.80;;
56893;SDS011;43392;50.078;13.704;2023-12-20T16:27:58;11.70;;;4.40;;
56893;SDS011;43392;50.078;13.704;2023-12-20T16:30:24;9.77;;;4.25;;
56893;SDS011;43392;50.078;13.704;2023-12-20T16:32:51;8.15;;;3.28;;
56893;SDS011;43392;50.078;13.704;2023-12-20T16:35:18;7.78;;;3.08;;
56893;SDS011;43392;50.078;13.704;2023-12-20T16:37:44;7.70;;;3.03;;
56893;SDS011;43392;50.078;13.704;2023-12-20T16:40:12;8.63;;;3.33;;
56893;SDS011;43392;50.078;13.704;2023-12-20T16:42:39;7.32;;;3.53;;
56893;SDS011;43392;50.078;13.704;2023-12-20T16:45:06;9.73;;;3.38;;
56893;SDS011;43392;50.078;13.704;2023-12-20T16:47:34;6.32;;;2.80;;
56893;SDS011;43392;50.078;13.704;2023-12-20T16:50:01;7.95;;;3.50;;
56893;SDS011;43392;50.078;13.704;2023-12-20T16:52:30;9.25;;;3.72;;
56893;SDS011;43392;50.078;13.704;2023-12-20T16:54:57;8.75;;;3.22;;
56893;SDS011;43392;50.078;13.704;2023-12-20T16:57:25;5.95;;;2.42;;
56893;SDS011;43392;50.078;13.704;2023-12-20T16:59:52;3.67;;;1.98;;
56893;SDS011;43392;50.078;13.704;2023-12-20T17:02:19;13.43;;;4.90;;
56893;SDS011;43392;50.078;13.704;2023-12-20T17:04:45;5.57;;;2.38;;
56893;SDS011;43392;50.078;13.704;2023-12-20T17:07:12;6.47;;;2.25;;
56893;SDS011;43392;50.078;13.704;2023-12-20T17:09:39;9.80;;;1.88;;
56893;SDS011;43392;50.078;13.704;2023-12-20T17:12:06;5.75;;;1.83;;
56893;SDS011;43392;50.078;13.704;2023-12-20T17:14:34;4.85;;;1.73;;
56893;SDS011;43392;50.078;13.704;2023-12-20T17:17:01;4.65;;;1.75;;
56893;SDS011;43392;50.078;13.704;2023-12-20T17:19:28;6.65;;;2.17;;
56893;SDS011;43392;50.078;13.704;2023-12-20T17:21:56;7.28;;;1.90;;
56893;SDS011;43392;50.078;13.704;2023-12-20T17:24:23;4.05;;;1.77;;
56893;SDS011;43392;50.078;13.704;2023-12-20T17:26:50;4.68;;;1.92;;
56893;SDS011;43392;50.078;13.704;2023-12-20T17:29:16;3.42;;;1.58;;
56893;SDS011;43392;50.078;13.704;2023-12-20T17:31:44;4.70;;;1.90;;
56893;SDS011;43392;50.078;13.704;2023-12-20T17:34:11;14.80;;;5.78;;
56893;SDS011;43392;50.078;13.704;2023-12-20T17:36:38;36.85;;;15.82;;
56893;SDS011;43392;50.078;13.704;2023-12-20T17:39:06;31.25;;;12.27;;
56893;SDS011;43392;50.078;13.704;2023-12-20T17:41:32;17.40;;;6.70;;
56893;SDS011;43392;50.078;13.704;2023-12-20T17:44:00;20.88;;;7.63;;
56893;SDS011;43392;50.078;13.704;2023-12-20T17:46:27;12.02;;;4.80;;
56893;SDS011;43392;50.078;13.704;2023-12-20T17:48:55;22.40;;;8.25;;
56893;SDS011;43392;50.078;13.704;2023-12-20T17:51:22;10.93;;;4.53;;
56893;SDS011;43392;50.078;13.704;2023-12-20T17:53:48;25.58;;;11.88;;
56893;SDS011;43392;50.078;13.704;2023-12-20T17:56:15;21.85;;;9.80;;
56893;SDS011;43392;50.078;13.704;2023-12-20T17:58:42;14.15;;;7.07;;
56893;SDS011;43392;50.078;13.704;2023-12-20T18:01:09;9.57;;;4.28;;
56893;SDS011;43392;50.078;13.704;2023-12-20T18:03:38;10.98;;;4.60;;
56893;SDS011;43392;50.078;13.704;2023-12-20T18:06:06;12.35;;;6.07;;
56893;SDS011;43392;50.078;13.704;2023-12-20T18:08:33;14.05;;;6.32;;
56893;SDS011;43392;50.078;13.704;2023-12-20T18:11:00;25.25;;;10.90;;
56893;SDS011;43392;50.078;13.704;2023-12-20T18:13:26;44.55;;;20.00;;
56893;SDS011;43392;50.078;13.704;2023-12-20T18:15:53;13.55;;;6.70;;
56893;SDS011;43392;50.078;13.704;2023-12-20T18:18:20;23.20;;;13.30;;
56893;SDS011;43392;50.078;13.704;2023-12-20T18:20:46;12.68;;;6.95;;
56893;SDS011;43392;50.078;13.704;2023-12-20T18:23:14;13.25;;;7.75;;
56893;SDS011;43392;50.078;13.704;2023-12-20T18:25:41;10.70;;;4.85;;
56893;SDS011;43392;50.078;13.704;2023-12-20T18:28:08;9.32;;;4.80;;
56893;SDS011;43392;50.078;13.704;2023-12-20T18:30:34;9.05;;;4.35;;
56893;SDS011;43392;50.078;13.704;2023-12-20T18:33:01;10.02;;;4.32;;
56893;SDS011;43392;50.078;13.704;2023-12-20T18:35:27;6.50;;;3.22;;
56893;SDS011;43392;50.078;13.704;2023-12-20T18:37:56;4.65;;;2.20;;
56893;SDS011;43392;50.078;13.704;2023-12-20T18:40:23;6.03;;;2.78;;
56893;SDS011;43392;50.078;13.704;2023-12-20T18:42:52;6.68;;;2.60;;
56893;SDS011;43392;50.078;13.704;2023-12-20T18:45:19;9.40;;;2.33;;
56893;SDS011;43392;50.078;13.704;2023-12-20T18:47:45;4.25;;;2.03;;
56893;SDS011;43392;50.078;13.704;2023-12-20T18:50:12;8.35;;;2.75;;
56893;SDS011;43392;50.078;13.704;2023-12-20T18:52:38;5.07;;;2.60;;
56893;SDS011;43392;50.078;13.704;2023-12-20T18:55:05;7.15;;;2.30;;
56893;SDS011;43392;50.078;13.704;2023-12-20T18:57:34;7.07;;;2.65;;
56893;SDS011;43392;50.078;13.704;2023-12-20T19:00:01;7.05;;;2.20;;
56893;SDS011;43392;50.078;13.704;2023-12-20T19:02:28;7.53;;;2.67;;
56893;SDS011;43392;50.078;13.704;2023-12-20T19:04:56;6.30;;;2.10;;
56893;SDS011;43392;50.078;13.704;2023-12-20T19:07:22;14.10;;;2.85;;
56893;SDS011;43392;50.078;13.704;2023-12-20T19:09:49;4.35;;;2.20;;
56893;SDS011;43392;50.078;13.704;2023-12-20T19:12:15;4.72;;;2.45;;
56893;SDS011;43392;50.078;13.704;2023-12-20T19:14:44;6.78;;;2.60;;
56893;SDS011;43392;50.078;13.704;2023-12-20T19:17:10;7.60;;;2.55;;
56893;SDS011;43392;50.078;13.704;2023-12-20T19:19:37;7.82;;;2.38;;
56893;SDS011;43392;50.078;13.704;2023-12-20T19:22:03;8.85;;;3.45;;
56893;SDS011;43392;50.078;13.704;2023-12-20T19:24:30;8.98;;;3.72;;
56893;SDS011;43392;50.078;13.704;2023-12-20T19:26:57;8.65;;;3.75;;
56893;SDS011;43392;50.078;13.704;2023-12-20T19:29:23;6.90;;;2.70;;
56893;SDS011;43392;50.078;13.704;2023-12-20T19:31:52;5.95;;;2.35;;
56893;SDS011;43392;50.078;13.704;2023-12-20T19:34:18;14.63;;;5.60;;
56893;SDS011;43392;50.078;13.704;2023-12-20T19:36:45;12.30;;;4.65;;
56893;SDS011;43392;50.078;13.704;2023-12-20T19:39:12;8.55;;;3.53;;
56893;SDS011;43392;50.078;13.704;2023-12-20T19:41:38;9.70;;;4.47;;
56893;SDS011;43392;50.078;13.704;2023-12-20T19:44:05;7.63;;;2.97;;
56893;SDS011;43392;50.078;13.704;2023-12-20T19:46:33;11.63;;;4.40;;
56893;SDS011;43392;50.078;13.704;2023-12-20T19:49:01;8.02;;;3.13;;
56893;SDS011;43392;50.078;13.704;2023-12-20T19:51:28;6.88;;;2.40;;
56893;SDS011;43392;50.078;13.704;2023-12-20T19:53:55;7.05;;;2.47;;
56893;SDS011;43392;50.078;13.704;2023-12-20T19:56:21;5.32;;;1.92;;
56893;SDS011;43392;50.078;13.704;2023-12-20T19:58:48;8.82;;;2.33;;
56893;SDS011;43392;50.078;13.704;2023-12-20T20:01:15;5.53;;;2.45;;
56893;SDS011;43392;50.078;13.704;2023-12-20T20:03:41;4.53;;;2.00;;
56893;SDS011;43392;50.078;13.704;2023-12-20T20:06:09;6.35;;;2.63;;
56893;SDS011;43392;50.078;13.704;2023-12-20T20:08:36;23.77;;;10.57;;
56893;SDS011;43392;50.078;13.704;2023-12-20T20:11:02;27.55;;;9.85;;
56893;SDS011;43392;50.078;13.704;2023-12-20T20:13:29;15.45;;;6.78;;
56893;SDS011;43392;50.078;13.704;2023-12-20T20:15:56;8.75;;;2.65;;
56893;SDS011;43392;50.078;13.704;2023-12-20T20:18:24;8.05;;;2.58;;
56893;SDS011;43392;50.078;13.704;2023-12-20T20:20:51;5.43;;;2.03;;
56893;SDS011;43392;50.078;13.704;2023-12-20T20:23:19;6.10;;;2.75;;
56893;SDS011;43392;50.078;13.704;2023-12-20T20:25:45;7.90;;;2.63;;
56893;SDS011;43392;50.078;13.704;2023-12-20T20:28:12;5.78;;;2.10;;
56893;SDS011;43392;50.078;13.704;2023-12-20T20:30:39;4.30;;;1.95;;
56893;SDS011;43392;50.078;13.704;2023-12-20T20:33:06;4.75;;;2.30;;
56893;SDS011;43392;50.078;13.704;2023-12-20T20:35:32;6.03;;;2.10;;
56893;SDS011;43392;50.078;13.704;2023-12-20T20:37:59;7.78;;;2.83;;
56893;SDS011;43392;50.078;13.704;2023-12-20T20:40:27;5.03;;;2.42;;
56893;SDS011;43392;50.078;13.704;2023-12-20T20:42:54;4.18;;;2.03;;
56893;SDS011;43392;50.078;13.704;2023-12-20T20:45:20;4.53;;;1.88;;
56893;SDS011;43392;50.078;13.704;2023-12-20T20:47:48;3.58;;;1.80;;
56893;SDS011;43392;50.078;13.704;2023-12-20T20:50:14;3.95;;;1.80;;
56893;SDS011;43392;50.078;13.704;2023-12-20T20:52:41;3.00;;;1.50;;
56893;SDS011;43392;50.078;13.704;2023-12-20T20:55:11;3.88;;;1.80;;
56893;SDS011;43392;50.078;13.704;2023-12-20T20:57:39;3.05;;;1.55;;
56893;SDS011;43392;50.078;13.704;2023-12-20T21:00:06;3.63;;;1.70;;
56893;SDS011;43392;50.078;13.704;2023-12-20T21:02:34;3.72;;;1.60;;
56893;SDS011;43392;50.078;13.704;2023-12-20T21:05:00;3.38;;;1.48;;
56893;SDS011;43392;50.078;13.704;2023-12-20T21:07:31;4.30;;;1.98;;
56893;SDS011;43392;50.078;13.704;2023-12-20T21:09:58;4.45;;;2.30;;
56893;SDS011;43392;50.078;13.704;2023-12-20T21:12:24;4.35;;;1.70;;
56893;SDS011;43392;50.078;13.704;2023-12-20T21:14:54;4.45;;;1.75;;
56893;SDS011;43392;50.078;13.704;2023-12-20T21:17:21;3.47;;;1.83;;
56893;SDS011;43392;50.078;13.704;2023-12-20T21:19:48;2.85;;;1.50;;
56893;SDS011;43392;50.078;13.704;2023-12-20T21:22:14;5.40;;;1.92;;
56893;SDS011;43392;50.078;13.704;2023-12-20T21:24:41;3.15;;;1.58;;
56893;SDS011;43392;50.078;13.704;2023-12-20T21:27:08;3.53;;;1.90;;
56893;SDS011;43392;50.078;13.704;2023-12-20T21:29:34;6.00;;;1.90;;
56893;SDS011;43392;50.078;13.704;2023-12-20T21:32:03;5.40;;;2.20;;
56893;SDS011;43392;50.078;13.704;2023-12-20T21:34:30;5.20;;;2.00;;
56893;SDS011;43392;50.078;13.704;2023-12-20T21:36:57;2.25;;;1.40;;
56893;SDS011;43392;50.078;13.704;2023-12-20T21:39:23;3.08;;;1.63;;
56893;SDS011;43392;50.078;13.704;2023-12-20T21:41:52;3.95;;;1.67;;
56893;SDS011;43392;50.078;13.704;2023-12-20T21:44:19;6.55;;;1.60;;
56893;SDS011;43392;50.078;13.704;2023-12-20T21:46:46;2.63;;;1.38;;
56893;SDS011;43392;50.078;13.704;2023-12-20T21:49:14;3.50;;;1.23;;
56893;SDS011;43392;50.078;13.704;2023-12-20T21:51:41;4.32;;;1.52;;
56893;SDS011;43392;50.078;13.704;2023-12-20T21:54:07;2.90;;;1.40;;
56893;SDS011;43392;50.078;13.704;2023-12-20T21:56:35;4.03;;;1.60;;
56893;SDS011;43392;50.078;13.704;2023-12-20T21:59:01;2.97;;;1.40;;
56893;SDS011;43392;50.078;13.704;2023-12-20T22:01:28;2.35;;;1.30;;
56893;SDS011;43392;50.078;13.704;2023-12-20T22:03:55;3.63;;;1.70;;
56893;SDS011;43392;50.078;13.704;2023-12-20T22:06:23;2.80;;;1.30;;
56893;SDS011;43392;50.078;13.704;2023-12-20T22:08:49;3.50;;;1.25;;
56893;SDS011;43392;50.078;13.704;2023-12-20T22:11:16;2.92;;;1.13;;
56893;SDS011;43392;50.078;13.704;2023-12-20T22:13:43;2.50;;;1.50;;
56893;SDS011;43392;50.078;13.704;2023-12-20T22:16:09;6.13;;;1.35;;
56893;SDS011;43392;50.078;13.704;2023-12-20T22:18:36;6.65;;;2.40;;
56893;SDS011;43392;50.078;13.704;2023-12-20T22:21:03;3.40;;;1.70;;
56893;SDS011;43392;50.078;13.704;2023-12-20T22:23:32;4.28;;;1.60;;
56893;SDS011;43392;50.078;13.704;2023-12-20T22:25:58;2.25;;;1.33;;
56893;SDS011;43392;50.078;13.704;2023-12-20T22:28:25;5.63;;;2.10;;
56893;SDS011;43392;50.078;13.704;2023-12-20T22:30:53;3.13;;;1.70;;
56893;SDS011;43392;50.078;13.704;2023-12-20T22:33:19;3.67;;;1.70;;
56893;SDS011;43392;50.078;13.704;2023-12-20T22:35:46;6.40;;;2.50;;
56893;SDS011;43392;50.078;13.704;2023-12-20T22:38:13;8.60;;;2.90;;
56893;SDS011;43392;50.078;13.704;2023-12-20T22:40:41;7.05;;;2.63;;
56893;SDS011;43392;50.078;13.704;2023-12-20T22:43:07;14.27;;;4.05;;
56893;SDS011;43392;50.078;13.704;2023-12-20T22:45:34;8.52;;;3.22;;
56893;SDS011;43392;50.078;13.704;2023-12-20T22:48:02;6.93;;;2.90;;
56893;SDS011;43392;50.078;13.704;2023-12-20T22:50:29;8.23;;;3.00;;
56893;SDS011;43392;50.078;13.704;2023-12-20T22:52:56;8.63;;;3.13;;
56893;SDS011;43392;50.078;13.704;2023-12-20T22:55:22;2.53;;;1.50;;
56893;SDS011;43392;50.078;13.704;2023-12-20T22:57:50;2.35;;;1.30;;
56893;SDS011;43392;50.078;13.704;2023-12-20T23:00:17;2.05;;;1.30;;
56893;SDS011;43392;50.078;13.704;2023-12-20T23:02:49;3.72;;;1.73;;
56893;SDS011;43392;50.078;13.704;2023-12-20T23:05:16;3.97;;;1.55;;
56893;SDS011;43392;50.078;13.704;2023-12-20T23:07:43;2.47;;;1.40;;
56893;SDS011;43392;50.078;13.704;2023-12-20T23:10:10;3.00;;;1.60;;
56893;SDS011;43392;50.078;13.704;2023-12-20T23:12:38;2.67;;;1.48;;
56893;SDS011;43392;50.078;13.704;2023-12-20T23:15:06;2.85;;;1.40;;
56893;SDS011;43392;50.078;13.704;2023-12-20T23:17:34;4.32;;;1.88;;
56893;SDS011;43392;50.078;13.704;2023-12-20T23:20:00;2.95;;;1.45;;
56893;SDS011;43392;50.078;13.704;2023-12-20T23:22:27;4.18;;;1.50;;
56893;SDS011;43392;50.078;13.704;2023-12-20T23:24:53;3.38;;;1.58;;
56893;SDS011;43392;50.078;13.704;2023-12-20T23:27:20;2.33;;;1.40;;
56893;SDS011;43392;50.078;13.704;2023-12-20T23:29:46;3.45;;;1.70;;
56893;SDS011;43392;50.078;13.704;2023-12-20T23:32:14;4.95;;;1.73;;
56893;SDS011;43392;50.078;13.704;2023-12-20T23:34:41;3.20;;;1.70;;
56893;SDS011;43392;50.078;13.704;2023-12-20T23:37:08;3.08;;;1.17;;
56893;SDS011;43392;50.078;13.704;2023-12-20T23:39:36;2.78;;;1.40;;
56893;SDS011;43392;50.078;13.704;2023-12-20T23:42:03;3.85;;;1.50;;
56893;SDS011;43392;50.078;13.704;2023-12-20T23:44:30;2.78;;;1.30;;
56893;SDS011;43392;50.078;13.704;2023-12-20T23:46:57;3.17;;;1.52;;
56893;SDS011;43392;50.078;13.704;2023-12-20T23:49:25;3.83;;;1.48;;
56893;SDS011;43392;50.078;13.704;2023-12-20T23:51:51;2.47;;;1.30;;
56893;SDS011;43392;50.078;13.704;2023-12-20T23:54:18;2.78;;;1.35;;
56893;SDS011;43392;50.078;13.704;2023-12-20T23:56:45;2.20;;;1.30;;
56893;SDS011;43392;50.078;13.704;2023-12-20T23:59:13;2.13;;;1.23;;
